Time;durP1;ratioP1;P1;durP2;ratioP2;P2;SDS_P1;SDS_P2;PMS_P1;PMS_P2;Temp;Humidity;BMP_temperature;BMP_pressure;BME280_temperature;BME280_humidity;BME280_pressure;Samples;Min_cycle;Max_cycle;Signal;HPM_P1;HPM_P2
2022/03/14 00:00:51;;;;;;;22.33;7.70;;;;;;;;;;5065270;28;20216;-70
2022/03/14 00:03:20;;;;;;;26.98;8.85;;;;;;;;;;5071788;28;20716;-70
2022/03/14 00:05:48;;;;;;;21.05;7.28;;;;;;;;;;5071530;28;20236;-70
2022/03/14 00:08:18;;;;;;;26.25;8.73;;;;;;;;;;5071874;28;20233;-70
2022/03/14 00:10:45;;;;;;;26.15;8.68;;;;;;;;;;5071671;28;20662;-70
2022/03/14 00:13:18;;;;;;;25.17;8.15;;;;;;;;;;5072030;28;20200;-69
2022/03/14 00:15:45;;;;;;;23.67;7.93;;;;;;;;;;5071737;28;20200;-70
2022/03/14 00:18:13;;;;;;;25.25;7.47;;;;;;;;;;5071465;28;20196;-70
2022/03/14 00:20:42;;;;;;;22.30;7.63;;;;;;;;;;5071740;28;20319;-70
2022/03/14 00:23:10;;;;;;;26.85;8.68;;;;;;;;;;5071553;28;20266;-70
2022/03/14 00:25:38;;;;;;;30.00;7.32;;;;;;;;;;5065083;28;20234;-69
2022/03/14 00:28:06;;;;;;;24.48;7.80;;;;;;;;;;5071342;28;20303;-67
2022/03/14 00:30:33;;;;;;;24.85;7.88;;;;;;;;;;5071683;28;20209;-67
2022/03/14 00:33:01;;;;;;;24.35;7.47;;;;;;;;;;5071081;28;20563;-68
2022/03/14 00:35:28;;;;;;;28.48;8.30;;;;;;;;;;5071574;28;20208;-67
2022/03/14 00:37:57;;;;;;;22.45;7.70;;;;;;;;;;5071392;28;20208;-67
2022/03/14 00:40:24;;;;;;;30.80;9.13;;;;;;;;;;5071270;28;20227;-67
2022/03/14 00:42:52;;;;;;;23.02;7.32;;;;;;;;;;5071209;28;20219;-67
2022/03/14 00:45:24;;;;;;;20.63;6.85;;;;;;;;;;5070742;28;20739;-67
2022/03/14 00:47:51;;;;;;;19.50;6.00;;;;;;;;;;5064582;28;20319;-66
2022/03/14 00:50:19;;;;;;;36.63;6.68;;;;;;;;;;5071061;28;20212;-67
2022/03/14 00:52:46;;;;;;;26.83;8.20;;;;;;;;;;5070926;28;20209;-67
2022/03/14 00:55:15;;;;;;;20.98;7.60;;;;;;;;;;5070748;28;20208;-67
2022/03/14 00:57:42;;;;;;;29.17;7.88;;;;;;;;;;5070720;28;20212;-67
2022/03/14 01:00:11;;;;;;;21.33;7.55;;;;;;;;;;5070859;28;20216;-67
2022/03/14 01:02:39;;;;;;;24.45;7.47;;;;;;;;;;5070837;28;20208;-67
2022/03/14 01:05:06;;;;;;;26.75;7.75;;;;;;;;;;5070645;28;20323;-67
2022/03/14 01:07:35;;;;;;;26.02;6.75;;;;;;;;;;5070724;28;20232;-67
2022/03/14 01:10:02;;;;;;;24.63;7.75;;;;;;;;;;5064080;28;20211;-67
2022/03/14 01:12:31;;;;;;;20.63;7.03;;;;;;;;;;5071040;28;20215;-68
2022/03/14 01:14:59;;;;;;;21.85;6.88;;;;;;;;;;5070839;28;20593;-67
2022/03/14 01:17:26;;;;;;;24.30;7.85;;;;;;;;;;5070123;28;20212;-68
2022/03/14 01:19:54;;;;;;;24.00;7.75;;;;;;;;;;5070755;28;20283;-67
2022/03/14 01:22:21;;;;;;;21.58;6.95;;;;;;;;;;5070702;28;20285;-67
2022/03/14 01:24:49;;;;;;;25.20;7.72;;;;;;;;;;5070460;28;20205;-67
2022/03/14 01:27:16;;;;;;;29.50;7.82;;;;;;;;;;5070295;28;20238;-68
2022/03/14 01:29:45;;;;;;;27.73;7.97;;;;;;;;;;5070512;28;20208;-67
2022/03/14 01:32:12;;;;;;;23.33;8.20;;;;;;;;;;5070653;28;20205;-67
2022/03/14 01:34:40;;;;;;;25.70;8.32;;;;;;;;;;5070544;28;20629;-69
2022/03/14 01:37:08;;;;;;;22.95;8.60;;;;;;;;;;5070135;28;20694;-67
2022/03/14 01:39:36;;;;;;;23.67;6.50;;;;;;;;;;5070524;28;20235;-68
2022/03/14 01:42:04;;;;;;;23.70;7.68;;;;;;;;;;5070290;28;20663;-67
2022/03/14 01:44:31;;;;;;;29.92;9.43;;;;;;;;;;5070338;28;20704;-68
2022/03/14 01:47:00;;;;;;;25.60;8.32;;;;;;;;;;5070468;28;20232;-71
2022/03/14 01:49:28;;;;;;;22.30;6.80;;;;;;;;;;5070297;28;20258;-67
2022/03/14 01:51:57;;;;;;;22.95;6.43;;;;;;;;;;5063861;28;20669;-67
2022/03/14 01:54:25;;;;;;;18.98;5.47;;;;;;;;;;5070514;28;20219;-67
2022/03/14 01:56:52;;;;;;;29.13;8.35;;;;;;;;;;5070709;28;20299;-67
2022/03/14 01:59:21;;;;;;;26.40;7.20;;;;;;;;;;5069969;28;20617;-68
2022/03/14 02:01:49;;;;;;;24.10;8.00;;;;;;;;;;5070219;28;20204;-67
2022/03/14 02:04:18;;;;;;;26.75;8.77;;;;;;;;;;5070050;28;20208;-67
2022/03/14 02:06:47;;;;;;;25.23;7.65;;;;;;;;;;5070331;28;20232;-67
2022/03/14 02:09:15;;;;;;;24.60;7.47;;;;;;;;;;5070235;28;20205;-67
2022/03/14 02:11:51;;;;;;;23.00;6.95;;;;;;;;;;5070035;28;20219;-67
2022/03/14 02:14:18;;;;;;;34.03;10.63;;;;;;;;;;5070115;28;20208;-68
2022/03/14 02:16:45;;;;;;;23.40;7.30;;;;;;;;;;5070183;28;20228;-67
2022/03/14 02:19:13;;;;;;;23.83;7.65;;;;;;;;;;5069846;28;20662;-67
2022/03/14 02:21:42;;;;;;;23.90;7.05;;;;;;;;;;5070577;28;20685;-68
2022/03/14 02:24:10;;;;;;;21.10;7.57;;;;;;;;;;5070012;28;20211;-67
2022/03/14 02:26:39;;;;;;;26.90;8.15;;;;;;;;;;5070021;28;20247;-67
2022/03/14 02:29:07;;;;;;;25.63;8.30;;;;;;;;;;5072097;28;20216;-67
2022/03/14 02:31:36;;;;;;;22.65;8.27;;;;;;;;;;5073390;28;20588;-67
2022/03/14 02:34:03;;;;;;;25.80;8.45;;;;;;;;;;5073698;28;20751;-67
2022/03/14 02:36:31;;;;;;;34.65;9.35;;;;;;;;;;5073704;28;20208;-67
2022/03/14 02:39:00;;;;;;;27.35;7.72;;;;;;;;;;5073545;28;20227;-67
2022/03/14 02:41:28;;;;;;;20.58;6.72;;;;;;;;;;5066792;28;20215;-67
2022/03/14 02:43:56;;;;;;;23.63;7.13;;;;;;;;;;5073306;28;20977;-67
2022/03/14 02:46:24;;;;;;;25.77;9.05;;;;;;;;;;5073653;28;20240;-67
2022/03/14 02:48:51;;;;;;;28.63;8.38;;;;;;;;;;5073473;28;20232;-67
2022/03/14 02:51:19;;;;;;;24.15;6.95;;;;;;;;;;5073112;28;20208;-67
2022/03/14 02:53:46;;;;;;;25.95;8.70;;;;;;;;;;5073370;28;20205;-67
2022/03/14 02:56:15;;;;;;;23.40;7.93;;;;;;;;;;5073386;28;20291;-67
2022/03/14 02:58:43;;;;;;;31.40;7.95;;;;;;;;;;5073073;28;20212;-67
2022/03/14 03:01:14;;;;;;;22.15;8.02;;;;;;;;;;5073188;28;20564;-67
2022/03/14 03:03:41;;;;;;;25.45;7.80;;;;;;;;;;5066704;28;20212;-67
2022/03/14 03:06:13;;;;;;;22.17;7.47;;;;;;;;;;5072973;28;20625;-67
2022/03/14 03:08:43;;;;;;;24.30;8.20;;;;;;;;;;5073038;28;20232;-68
2022/03/14 03:11:11;;;;;;;23.27;8.43;;;;;;;;;;5072933;28;20300;-68
2022/03/14 03:13:42;;;;;;;29.05;8.65;;;;;;;;;;5072872;28;20220;-67
2022/03/14 03:16:10;;;;;;;30.17;7.38;;;;;;;;;;5073015;28;20673;-67
2022/03/14 03:18:38;;;;;;;25.95;7.57;;;;;;;;;;5072773;28;20212;-67
2022/03/14 03:21:05;;;;;;;26.38;8.50;;;;;;;;;;5072584;28;20205;-67
2022/03/14 03:23:35;;;;;;;22.17;7.50;;;;;;;;;;5072872;28;20209;-67
2022/03/14 03:26:04;;;;;;;26.40;8.27;;;;;;;;;;5072979;28;20590;-68
2022/03/14 03:28:35;;;;;;;24.50;7.55;;;;;;;;;;5072824;28;20255;-68
2022/03/14 03:31:05;;;;;;;24.85;7.70;;;;;;;;;;5066229;28;20210;-67
2022/03/14 03:33:33;;;;;;;24.70;7.25;;;;;;;;;;5065810;28;20216;-68
2022/03/14 03:36:01;;;;;;;26.05;8.60;;;;;;;;;;5072427;28;20204;-68
2022/03/14 03:38:30;;;;;;;23.23;8.70;;;;;;;;;;5072598;28;20211;-67
2022/03/14 03:40:57;;;;;;;25.80;9.50;;;;;;;;;;5071629;28;20208;-68
2022/03/14 03:43:25;;;;;;;24.17;7.40;;;;;;;;;;5072338;28;20206;-67
2022/03/14 03:45:52;;;;;;;26.25;10.15;;;;;;;;;;5072338;28;20212;-68
2022/03/14 03:48:21;;;;;;;21.05;7.35;;;;;;;;;;5072182;28;20224;-68
2022/03/14 03:50:49;;;;;;;26.65;10.20;;;;;;;;;;5072149;28;20204;-67
2022/03/14 03:53:17;;;;;;;27.42;8.98;;;;;;;;;;5072032;28;20216;-68
2022/03/14 03:55:45;;;;;;;31.05;13.15;;;;;;;;;;5072193;28;20220;-68
2022/03/14 03:58:12;;;;;;;29.45;11.10;;;;;;;;;;5072101;28;20219;-67
2022/03/14 04:00:40;;;;;;;30.75;11.55;;;;;;;;;;5071982;28;20216;-69
2022/03/14 04:03:08;;;;;;;33.50;10.35;;;;;;;;;;5071655;28;20204;-68
2022/03/14 04:05:41;;;;;;;29.75;9.25;;;;;;;;;;5072014;28;20233;-67
2022/03/14 04:08:10;;;;;;;31.88;9.43;;;;;;;;;;5071963;28;20592;-68
2022/03/14 04:10:43;;;;;;;26.25;7.72;;;;;;;;;;5071777;28;20208;-68
2022/03/14 04:13:10;;;;;;;27.92;8.63;;;;;;;;;;5071513;28;20207;-69
2022/03/14 04:15:49;;;;;;;29.50;9.38;;;;;;;;;;5071611;28;20315;-68
2022/03/14 04:18:18;;;;;;;30.63;9.45;;;;;;;;;;5071742;28;20243;-67
2022/03/14 04:20:47;;;;;;;28.80;8.32;;;;;;;;;;5071491;28;20208;-67
2022/03/14 04:23:14;;;;;;;23.48;8.32;;;;;;;;;;5071508;28;20698;-68
2022/03/14 04:25:44;;;;;;;20.23;6.80;;;;;;;;;;5064896;28;20216;-68
2022/03/14 04:28:11;;;;;;;27.60;9.55;;;;;;;;;;5071263;28;20656;-68
2022/03/14 04:30:39;;;;;;;23.10;6.95;;;;;;;;;;5071833;28;20318;-68
2022/03/14 04:33:08;;;;;;;26.30;8.80;;;;;;;;;;5071316;28;20219;-69
2022/03/14 04:35:36;;;;;;;23.88;9.52;;;;;;;;;;5071232;28;20696;-68
2022/03/14 04:38:06;;;;;;;23.95;7.82;;;;;;;;;;5071376;28;20636;-68
2022/03/14 04:40:33;;;;;;;23.00;7.60;;;;;;;;;;5071173;28;20596;-67
2022/03/14 04:43:05;;;;;;;32.10;9.05;;;;;;;;;;5070935;28;20200;-68
2022/03/14 04:45:33;;;;;;;28.58;9.32;;;;;;;;;;5071509;28;20245;-68
2022/03/14 04:48:01;;;;;;;27.92;8.60;;;;;;;;;;5071246;28;20297;-68
2022/03/14 04:50:29;;;;;;;24.60;8.10;;;;;;;;;;5071235;28;20212;-67
2022/03/14 04:52:56;;;;;;;23.67;8.52;;;;;;;;;;5071115;28;20307;-68
2022/03/14 04:55:25;;;;;;;22.30;8.15;;;;;;;;;;5070767;28;20295;-67
2022/03/14 04:57:52;;;;;;;40.65;16.05;;;;;;;;;;5070825;28;20209;-68
2022/03/14 05:00:20;;;;;;;34.35;13.15;;;;;;;;;;5070883;28;20216;-67
2022/03/14 05:02:48;;;;;;;30.80;9.70;;;;;;;;;;5071002;28;20207;-67
2022/03/14 05:05:15;;;;;;;32.08;10.75;;;;;;;;;;5070857;28;20233;-67
2022/03/14 05:07:43;;;;;;;50.78;14.50;;;;;;;;;;5070491;28;20240;-67
2022/03/14 05:10:11;;;;;;;71.93;25.27;;;;;;;;;;5071048;28;20637;-68
2022/03/14 05:12:40;;;;;;;71.15;24.05;;;;;;;;;;5070724;28;20204;-68
2022/03/14 05:15:08;;;;;;;54.17;19.45;;;;;;;;;;5070501;28;20696;-68
2022/03/14 05:17:36;;;;;;;78.07;27.58;;;;;;;;;;5070733;28;20211;-67
2022/03/14 05:20:04;;;;;;;29.15;11.52;;;;;;;;;;5070563;28;20217;-68
2022/03/14 05:22:32;;;;;;;78.20;22.33;;;;;;;;;;5070603;28;20686;-68
2022/03/14 05:24:59;;;;;;;82.38;23.35;;;;;;;;;;5070702;28;20295;-71
2022/03/14 05:27:27;;;;;;;103.10;25.23;;;;;;;;;;5070576;28;20208;-68
2022/03/14 05:29:55;;;;;;;122.90;34.67;;;;;;;;;;5070475;28;20212;-67
2022/03/14 05:32:23;;;;;;;132.40;35.72;;;;;;;;;;5070684;28;20215;-67
2022/03/14 05:34:52;;;;;;;97.32;26.50;;;;;;;;;;5070494;28;20204;-68
2022/03/14 05:37:19;;;;;;;49.03;16.58;;;;;;;;;;5070796;28;20769;-68
2022/03/14 05:39:47;;;;;;;72.40;25.02;;;;;;;;;;5070617;28;20224;-68
2022/03/14 05:42:15;;;;;;;41.42;17.33;;;;;;;;;;5070481;28;20269;-68
2022/03/14 05:44:44;;;;;;;89.00;34.47;;;;;;;;;;5070528;28;20277;-68
2022/03/14 05:47:12;;;;;;;69.07;26.52;;;;;;;;;;5070163;28;20250;-69
2022/03/14 05:49:40;;;;;;;81.40;34.25;;;;;;;;;;5070342;28;20232;-69
2022/03/14 05:52:09;;;;;;;76.68;31.17;;;;;;;;;;5070567;28;20208;-68
2022/03/14 05:54:37;;;;;;;91.30;34.60;;;;;;;;;;5070607;28;20247;-68
2022/03/14 05:57:04;;;;;;;54.03;21.02;;;;;;;;;;5070064;28;20209;-68
2022/03/14 05:59:32;;;;;;;55.67;21.33;;;;;;;;;;5070257;28;20213;-68
2022/03/14 06:01:59;;;;;;;38.58;17.05;;;;;;;;;;5070080;28;20205;-67
2022/03/14 06:04:28;;;;;;;35.75;12.07;;;;;;;;;;5073196;28;20224;-68
2022/03/14 06:06:56;;;;;;;33.38;12.32;;;;;;;;;;5074323;28;20273;-67
2022/03/14 06:09:25;;;;;;;35.38;13.05;;;;;;;;;;5073763;28;20224;-67
2022/03/14 06:11:52;;;;;;;32.67;12.25;;;;;;;;;;5074434;28;20299;-70
2022/03/14 06:14:20;;;;;;;30.95;11.13;;;;;;;;;;5073843;28;20717;-70
2022/03/14 06:16:47;;;;;;;35.22;13.50;;;;;;;;;;5074249;28;20204;-67
2022/03/14 06:19:15;;;;;;;36.65;15.82;;;;;;;;;;5073769;28;20219;-67
2022/03/14 06:21:44;;;;;;;60.25;26.45;;;;;;;;;;5074169;28;20650;-68
2022/03/14 06:24:11;;;;;;;43.90;19.42;;;;;;;;;;5073832;28;20213;-67
2022/03/14 06:26:39;;;;;;;43.85;18.20;;;;;;;;;;5073883;28;20204;-67
2022/03/14 06:29:06;;;;;;;37.47;15.15;;;;;;;;;;5073486;28;20274;-68
2022/03/14 06:31:34;;;;;;;37.50;16.60;;;;;;;;;;5074142;28;20227;-67
2022/03/14 06:34:02;;;;;;;50.00;19.08;;;;;;;;;;5073542;28;20209;-68
2022/03/14 06:36:29;;;;;;;52.28;19.65;;;;;;;;;;5073906;28;20212;-67
2022/03/14 06:38:59;;;;;;;37.13;15.63;;;;;;;;;;5066904;28;20257;-68
2022/03/14 06:41:27;;;;;;;34.08;13.68;;;;;;;;;;5073395;28;20282;-67
2022/03/14 06:43:57;;;;;;;32.80;13.23;;;;;;;;;;5073632;28;20212;-68
2022/03/14 06:46:24;;;;;;;31.30;12.50;;;;;;;;;;5073338;28;20212;-67
2022/03/14 06:48:51;;;;;;;35.10;13.93;;;;;;;;;;5073224;28;20724;-68
2022/03/14 06:51:20;;;;;;;33.75;12.85;;;;;;;;;;5073053;28;20211;-68
2022/03/14 06:53:48;;;;;;;31.13;13.05;;;;;;;;;;5073153;28;20204;-68
2022/03/14 06:56:17;;;;;;;37.28;14.85;;;;;;;;;;5073083;28;20204;-67
2022/03/14 06:58:45;;;;;;;41.15;15.93;;;;;;;;;;5073218;28;20208;-68
2022/03/14 07:01:13;;;;;;;36.30;15.00;;;;;;;;;;5072884;28;20204;-68
2022/03/14 07:03:41;;;;;;;34.70;13.27;;;;;;;;;;5073019;28;20212;-69
2022/03/14 07:06:08;;;;;;;35.17;12.95;;;;;;;;;;5072810;28;20247;-68
2022/03/14 07:08:35;;;;;;;37.15;13.45;;;;;;;;;;5072719;28;20652;-68
2022/03/14 07:11:03;;;;;;;33.03;13.18;;;;;;;;;;5072908;28;20208;-68
2022/03/14 07:13:32;;;;;;;32.05;12.30;;;;;;;;;;5073090;28;20207;-68
2022/03/14 07:15:59;;;;;;;35.67;13.60;;;;;;;;;;5071835;28;20208;-68
2022/03/14 07:18:29;;;;;;;33.30;14.35;;;;;;;;;;5072882;28;20216;-68
2022/03/14 07:20:57;;;;;;;34.80;13.38;;;;;;;;;;5072599;28;20218;-69
2022/03/14 07:23:24;;;;;;;32.25;11.77;;;;;;;;;;5072628;28;20670;-68
2022/03/14 07:25:51;;;;;;;29.80;11.40;;;;;;;;;;5072431;28;20628;-69
2022/03/14 07:28:19;;;;;;;26.85;11.25;;;;;;;;;;5072386;28;20204;-69
2022/03/14 07:30:48;;;;;;;36.30;11.10;;;;;;;;;;5072794;28;20295;-69
2022/03/14 07:33:16;;;;;;;37.58;14.02;;;;;;;;;;5072238;28;20209;-68
2022/03/14 07:35:46;;;;;;;51.10;22.75;;;;;;;;;;5072282;28;20709;-68
2022/03/14 07:38:13;;;;;;;37.42;13.35;;;;;;;;;;5072510;28;20204;-69
2022/03/14 07:40:42;;;;;;;34.13;12.52;;;;;;;;;;5072164;28;20226;-69
2022/03/14 07:43:10;;;;;;;30.42;12.07;;;;;;;;;;5072228;28;20205;-69
2022/03/14 07:45:38;;;;;;;27.60;11.50;;;;;;;;;;5072479;28;20305;-69
2022/03/14 07:48:07;;;;;;;29.55;12.02;;;;;;;;;;5072176;28;20209;-69
2022/03/14 07:50:35;;;;;;;32.53;13.27;;;;;;;;;;5072033;28;20234;-69
2022/03/14 07:53:04;;;;;;;31.13;11.30;;;;;;;;;;5071785;28;20209;-71
2022/03/14 07:55:31;;;;;;;31.92;11.60;;;;;;;;;;5072064;28;20358;-69
2022/03/14 07:58:00;;;;;;;25.83;10.73;;;;;;;;;;5071934;28;20206;-68
2022/03/14 08:00:27;;;;;;;28.58;9.30;;;;;;;;;;5071951;28;20218;-71
2022/03/14 08:02:55;;;;;;;28.13;9.70;;;;;;;;;;5071689;28;20215;-69
2022/03/14 08:05:26;;;;;;;28.50;9.80;;;;;;;;;;5071554;28;20239;-69
2022/03/14 08:07:54;;;;;;;27.27;9.52;;;;;;;;;;5071960;28;20223;-69
2022/03/14 08:10:22;;;;;;;27.60;10.57;;;;;;;;;;5071647;28;20731;-70
2022/03/14 08:12:51;;;;;;;26.02;9.77;;;;;;;;;;5071811;28;20234;-68
2022/03/14 08:15:20;;;;;;;26.95;9.43;;;;;;;;;;5071389;28;20211;-69
2022/03/14 08:17:47;;;;;;;27.58;10.73;;;;;;;;;;5071515;28;20258;-69
2022/03/14 08:20:15;;;;;;;31.83;10.93;;;;;;;;;;5071483;28;20213;-69
2022/03/14 08:22:43;;;;;;;28.73;10.00;;;;;;;;;;5071383;28;20209;-70
2022/03/14 08:25:11;;;;;;;26.83;11.65;;;;;;;;;;5071178;28;20216;-69
2022/03/14 08:27:39;;;;;;;28.45;11.23;;;;;;;;;;5071278;28;20205;-69
2022/03/14 08:30:07;;;;;;;27.25;11.40;;;;;;;;;;5071492;28;20232;-69
2022/03/14 08:32:35;;;;;;;25.52;9.88;;;;;;;;;;5071657;28;20256;-69
2022/03/14 08:35:07;;;;;;;34.53;11.05;;;;;;;;;;5070957;28;20287;-70
2022/03/14 08:37:35;;;;;;;24.10;8.30;;;;;;;;;;5071269;28;20211;-69
2022/03/14 08:40:04;;;;;;;28.02;9.80;;;;;;;;;;5071049;28;20215;-69
2022/03/14 08:42:31;;;;;;;28.45;8.63;;;;;;;;;;5071070;28;20209;-69
2022/03/14 08:45:00;;;;;;;22.70;7.95;;;;;;;;;;5071256;28;20223;-70
2022/03/14 08:47:28;;;;;;;36.30;10.05;;;;;;;;;;5071063;28;20211;-69
2022/03/14 08:49:55;;;;;;;27.17;9.15;;;;;;;;;;5071015;28;20234;-70
2022/03/14 08:52:22;;;;;;;25.97;9.60;;;;;;;;;;5070930;28;20215;-70
2022/03/14 08:54:50;;;;;;;25.67;8.20;;;;;;;;;;5070789;28;20449;-69
2022/03/14 08:57:18;;;;;;;26.42;9.25;;;;;;;;;;5070491;28;20458;-70
2022/03/14 08:59:46;;;;;;;26.30;7.97;;;;;;;;;;5070940;28;20209;-69
2022/03/14 09:02:14;;;;;;;25.02;9.30;;;;;;;;;;5070701;28;20201;-69
2022/03/14 09:04:41;;;;;;;24.17;8.93;;;;;;;;;;5070921;28;20228;-71
2022/03/14 09:07:09;;;;;;;30.55;9.57;;;;;;;;;;5070517;28;20224;-70
2022/03/14 09:09:36;;;;;;;24.45;10.10;;;;;;;;;;5070522;28;20311;-69
2022/03/14 09:12:04;;;;;;;23.40;9.15;;;;;;;;;;5070645;28;20209;-70
2022/03/14 09:14:32;;;;;;;27.23;10.50;;;;;;;;;;5070799;28;20212;-70
2022/03/14 09:17:00;;;;;;;26.05;8.50;;;;;;;;;;5070488;28;20652;-70
2022/03/14 09:19:28;;;;;;;26.85;9.48;;;;;;;;;;5070593;28;20213;-70
2022/03/14 09:21:58;;;;;;;25.65;8.85;;;;;;;;;;5070442;28;20292;-69
2022/03/14 09:24:26;;;;;;;30.40;10.50;;;;;;;;;;5070730;28;20208;-70
2022/03/14 09:26:59;;;;;;;25.45;9.05;;;;;;;;;;5070375;28;20205;-69
2022/03/14 09:29:26;;;;;;;27.52;9.90;;;;;;;;;;5070638;28;20657;-69
2022/03/14 09:31:56;;;;;;;30.05;10.20;;;;;;;;;;5070381;28;20238;-70
2022/03/14 09:34:24;;;;;;;28.85;9.60;;;;;;;;;;5070229;28;20216;-69
2022/03/14 09:36:53;;;;;;;24.58;8.90;;;;;;;;;;5070291;28;20257;-69
2022/03/14 09:39:21;;;;;;;28.73;9.85;;;;;;;;;;5069537;28;20315;-71
2022/03/14 09:41:49;;;;;;;24.45;9.55;;;;;;;;;;5070679;28;20214;-70
2022/03/14 09:44:20;;;;;;;29.40;10.13;;;;;;;;;;5070340;28;20670;-69
2022/03/14 09:46:48;;;;;;;28.08;9.52;;;;;;;;;;5070245;28;20685;-69
2022/03/14 09:49:18;;;;;;;31.00;9.00;;;;;;;;;;5070121;28;20601;-69
2022/03/14 09:51:46;;;;;;;27.95;9.35;;;;;;;;;;5070320;28;20283;-69
2022/03/14 09:54:14;;;;;;;25.42;9.02;;;;;;;;;;5070224;28;20218;-69
2022/03/14 09:56:42;;;;;;;24.88;8.85;;;;;;;;;;5070131;28;20956;-69
2022/03/14 09:59:12;;;;;;;25.40;8.43;;;;;;;;;;5069963;28;20211;-69
2022/03/14 10:01:40;;;;;;;23.85;8.32;;;;;;;;;;5070137;28;20254;-69
2022/03/14 10:04:08;;;;;;;25.80;9.02;;;;;;;;;;5070417;28;20312;-70
2022/03/14 10:06:40;;;;;;;35.28;9.88;;;;;;;;;;5070163;28;20271;-69
2022/03/14 10:09:07;;;;;;;26.73;8.35;;;;;;;;;;5063350;28;20209;-69
2022/03/14 10:11:35;;;;;;;23.25;8.10;;;;;;;;;;5070028;28;20666;-69
2022/03/14 10:14:06;;;;;;;30.48;8.80;;;;;;;;;;5070047;28;20212;-70
2022/03/14 10:16:34;;;;;;;24.93;8.87;;;;;;;;;;5070252;28;20598;-69
2022/03/14 10:19:02;;;;;;;24.70;8.95;;;;;;;;;;5069594;28;20455;-69
2022/03/14 10:21:34;;;;;;;24.53;8.33;;;;;;;;;;5070247;28;20303;-70
2022/03/14 10:24:04;;;;;;;22.63;8.13;;;;;;;;;;5069897;28;20945;-70
2022/03/14 10:26:33;;;;;;;24.97;9.80;;;;;;;;;;5069955;28;20205;-70
2022/03/14 10:29:03;;;;;;;26.77;9.05;;;;;;;;;;5069579;28;20444;-69
2022/03/14 10:31:31;;;;;;;24.70;9.38;;;;;;;;;;5069840;28;20217;-69
2022/03/14 10:34:04;;;;;;;25.02;8.23;;;;;;;;;;5069781;28;20237;-69
2022/03/14 10:36:45;;;;;;;25.85;9.07;;;;;;;;;;5069920;28;20243;-70
2022/03/14 10:39:25;;;;;;;30.27;9.13;;;;;;;;;;5069557;28;20205;-69
2022/03/14 10:42:04;;;;;;;25.70;9.20;;;;;;;;;;5069811;28;20212;-70
2022/03/14 10:44:32;;;;;;;22.98;9.30;;;;;;;;;;5069885;28;20666;-69
2022/03/14 10:47:00;;;;;;;25.52;9.10;;;;;;;;;;5069555;28;20201;-69
2022/03/14 10:49:29;;;;;;;25.02;8.88;;;;;;;;;;5070586;28;20241;-70
2022/03/14 10:51:57;;;;;;;24.02;8.35;;;;;;;;;;5073471;28;20213;-69
2022/03/14 10:54:26;;;;;;;24.77;8.45;;;;;;;;;;5066650;28;20201;-69
2022/03/14 10:57:12;;;;;;;27.63;9.00;;;;;;;;;;5073177;28;20200;-69
2022/03/14 10:59:41;;;;;;;26.10;8.38;;;;;;;;;;5067702;28;20212;-69
2022/03/14 11:02:10;;;;;;;29.15;10.55;;;;;;;;;;5073494;28;20230;-69
2022/03/14 11:04:41;;;;;;;23.17;9.15;;;;;;;;;;5066053;28;20232;-69
2022/03/14 11:07:08;;;;;;;39.25;9.52;;;;;;;;;;5072904;28;20672;-69
2022/03/14 11:09:44;;;;;;;40.03;12.27;;;;;;;;;;5072938;28;20228;-69
2022/03/14 11:12:14;;;;;;;23.25;8.15;;;;;;;;;;5072802;28;20204;-70
2022/03/14 11:14:43;;;;;;;24.63;9.15;;;;;;;;;;5072780;28;20208;-69
2022/03/14 11:17:11;;;;;;;28.50;8.70;;;;;;;;;;5072708;28;20215;-69
2022/03/14 11:19:39;;;;;;;29.60;9.43;;;;;;;;;;5072947;28;20215;-69
2022/03/14 11:22:10;;;;;;;24.27;8.90;;;;;;;;;;5072723;28;20716;-69
2022/03/14 11:24:38;;;;;;;26.05;9.35;;;;;;;;;;5072606;28;20212;-70
2022/03/14 11:27:07;;;;;;;30.85;12.82;;;;;;;;;;5072269;28;20297;-69
2022/03/14 11:29:35;;;;;;;32.72;13.40;;;;;;;;;;5072743;28;20201;-69
2022/03/14 11:32:03;;;;;;;27.88;9.50;;;;;;;;;;5072556;28;20216;-69
2022/03/14 11:34:31;;;;;;;29.33;11.15;;;;;;;;;;5072800;28;20209;-69
2022/03/14 11:36:59;;;;;;;26.90;8.98;;;;;;;;;;5072652;28;20549;-69
2022/03/14 11:39:28;;;;;;;27.27;9.50;;;;;;;;;;5072377;28;20208;-69
2022/03/14 11:41:56;;;;;;;24.55;9.35;;;;;;;;;;5072467;28;20229;-69
2022/03/14 11:44:25;;;;;;;26.23;9.75;;;;;;;;;;5072433;28;20204;-69
2022/03/14 11:46:54;;;;;;;24.35;8.82;;;;;;;;;;5072082;28;20208;-69
2022/03/14 11:49:25;;;;;;;26.35;9.50;;;;;;;;;;5072104;28;20270;-69
2022/03/14 11:51:52;;;;;;;26.88;8.80;;;;;;;;;;5071955;28;20236;-69
2022/03/14 11:54:20;;;;;;;27.05;8.30;;;;;;;;;;5072405;28;20223;-69
2022/03/14 11:56:57;;;;;;;29.42;10.70;;;;;;;;;;5072394;28;20587;-69
2022/03/14 11:59:28;;;;;;;24.60;8.10;;;;;;;;;;5072096;28;20659;-69
2022/03/14 12:01:58;;;;;;;27.70;9.23;;;;;;;;;;5065345;28;20204;-69
2022/03/14 12:04:30;;;;;;;35.17;9.20;;;;;;;;;;5064823;28;20212;-69
2022/03/14 12:07:05;;;;;;;26.77;8.77;;;;;;;;;;5065225;28;20252;-69
2022/03/14 12:09:51;;;;;;;22.83;8.27;;;;;;;;;;5065436;28;20236;-70
2022/03/14 12:12:30;;;;;;;25.15;8.88;;;;;;;;;;5066634;28;20208;-69
2022/03/14 12:14:59;;;;;;;33.22;10.90;;;;;;;;;;5071628;28;20208;-69
2022/03/14 12:17:28;;;;;;;24.95;8.90;;;;;;;;;;5071756;28;20212;-70
2022/03/14 12:19:57;;;;;;;27.45;8.95;;;;;;;;;;5071720;28;20291;-70
2022/03/14 12:22:36;;;;;;;28.60;9.05;;;;;;;;;;5071822;28;20270;-70
2022/03/14 12:25:04;;;;;;;22.08;8.13;;;;;;;;;;5071160;28;20208;-70
2022/03/14 12:27:35;;;;;;;26.60;9.20;;;;;;;;;;5071663;28;20205;-70
2022/03/14 12:30:06;;;;;;;30.10;8.95;;;;;;;;;;5064845;28;20239;-70
2022/03/14 12:32:35;;;;;;;26.33;9.23;;;;;;;;;;5071458;28;20238;-70
2022/03/14 12:35:08;;;;;;;25.40;9.60;;;;;;;;;;5071082;28;20212;-70
2022/03/14 12:37:40;;;;;;;22.90;8.13;;;;;;;;;;5071151;28;20201;-70
2022/03/14 12:40:09;;;;;;;25.52;8.85;;;;;;;;;;5071063;28;20213;-69
2022/03/14 12:42:40;;;;;;;22.40;8.57;;;;;;;;;;5071332;28;20211;-70
2022/03/14 12:45:25;;;;;;;27.65;8.90;;;;;;;;;;5070834;28;20212;-70
2022/03/14 12:47:57;;;;;;;22.90;8.38;;;;;;;;;;5071244;28;20575;-70
2022/03/14 12:50:44;;;;;;;26.92;10.30;;;;;;;;;;5070344;28;20229;-70
2022/03/14 12:53:14;;;;;;;25.15;8.50;;;;;;;;;;5064664;28;20209;-70
2022/03/14 12:55:44;;;;;;;22.23;7.72;;;;;;;;;;5071059;28;20215;-70
2022/03/14 12:58:13;;;;;;;23.50;7.97;;;;;;;;;;5071004;28;20208;-70
2022/03/14 13:00:42;;;;;;;26.02;8.68;;;;;;;;;;5070705;28;20297;-69
2022/03/14 13:03:10;;;;;;;28.75;9.18;;;;;;;;;;5070514;28;20283;-70
2022/03/14 13:05:41;;;;;;;26.65;8.82;;;;;;;;;;5070731;28;20244;-71
2022/03/14 13:08:09;;;;;;;28.85;8.70;;;;;;;;;;5070828;28;20262;-70
2022/03/14 13:10:40;;;;;;;25.92;9.13;;;;;;;;;;5070606;28;20247;-69
2022/03/14 13:13:09;;;;;;;25.42;8.00;;;;;;;;;;5069470;28;20212;-70
2022/03/14 13:15:40;;;;;;;27.23;9.13;;;;;;;;;;5070804;28;20723;-69
2022/03/14 13:18:19;;;;;;;24.10;9.00;;;;;;;;;;5070964;28;20213;-71
2022/03/14 13:20:49;;;;;;;26.65;8.73;;;;;;;;;;5070655;28;20273;-70
2022/03/14 13:23:16;;;;;;;21.60;8.85;;;;;;;;;;5070362;28;20208;-70
2022/03/14 13:25:48;;;;;;;26.33;8.80;;;;;;;;;;5070421;28;20205;-70
2022/03/14 13:28:37;;;;;;;27.08;8.70;;;;;;;;;;5070669;28;20208;-70
2022/03/14 13:31:06;;;;;;;25.63;9.43;;;;;;;;;;5062008;28;20720;-70
2022/03/14 13:33:36;;;;;;;25.42;9.30;;;;;;;;;;5070603;28;20205;-70
2022/03/14 13:36:04;;;;;;;22.70;9.35;;;;;;;;;;5070325;28;20212;-70
2022/03/14 13:38:36;;;;;;;23.30;8.85;;;;;;;;;;5070724;28;20209;-70
2022/03/14 13:41:05;;;;;;;29.90;9.48;;;;;;;;;;5064146;28;20204;-70
2022/03/14 13:43:33;;;;;;;23.38;8.70;;;;;;;;;;5070463;28;20219;-70
2022/03/14 13:46:18;;;;;;;23.05;8.75;;;;;;;;;;5070141;28;20584;-69
2022/03/14 13:48:51;;;;;;;25.25;9.48;;;;;;;;;;5070234;28;20201;-69
2022/03/14 13:51:21;;;;;;;25.65;8.07;;;;;;;;;;5070078;28;20616;-70
2022/03/14 13:53:49;;;;;;;25.02;8.88;;;;;;;;;;5070489;28;20215;-69
2022/03/14 13:56:17;;;;;;;22.50;7.80;;;;;;;;;;5070282;28;20212;-70
2022/03/14 13:58:54;;;;;;;26.55;8.80;;;;;;;;;;5070357;28;20299;-69
2022/03/14 14:01:22;;;;;;;25.75;9.27;;;;;;;;;;5070237;28;20208;-69
2022/03/14 14:03:50;;;;;;;23.08;8.80;;;;;;;;;;5070159;28;20216;-69
2022/03/14 14:06:19;;;;;;;23.85;8.23;;;;;;;;;;5070223;28;20750;-69
2022/03/14 14:08:47;;;;;;;22.92;8.82;;;;;;;;;;5069934;28;20228;-69
2022/03/14 14:11:26;;;;;;;26.35;9.35;;;;;;;;;;5069668;28;20236;-69
2022/03/14 14:13:53;;;;;;;28.50;9.10;;;;;;;;;;5070397;28;20630;-69
2022/03/14 14:16:22;;;;;;;23.55;8.05;;;;;;;;;;5069861;28;20581;-69
2022/03/14 14:19:04;;;;;;;31.15;11.68;;;;;;;;;;5070423;28;20603;-70
2022/03/14 14:21:33;;;;;;;28.35;8.40;;;;;;;;;;5069793;28;20673;-69
2022/03/14 14:24:01;;;;;;;24.05;9.00;;;;;;;;;;5070422;28;20666;-69
2022/03/14 14:26:32;;;;;;;25.95;8.88;;;;;;;;;;5074076;28;20657;-69
2022/03/14 14:28:59;;;;;;;23.05;8.65;;;;;;;;;;5073704;28;20696;-73
2022/03/14 14:31:27;;;;;;;28.92;8.82;;;;;;;;;;5073723;28;20236;-69
2022/03/14 14:33:54;;;;;;;22.80;8.00;;;;;;;;;;5073593;28;20216;-69
2022/03/14 14:36:22;;;;;;;25.30;8.95;;;;;;;;;;5073560;28;20204;-69